Time;durP1;ratioP1;P1;durP2;ratioP2;P2;SDS_P1;SDS_P2;PMS_P1;PMS_P2;Temp;Humidity;BMP_temperature;BMP_pressure;BME280_temperature;BME280_humidity;BME280_pressure;Samples;Min_cycle;Max_cycle;Signal;HPM_P1;HPM_P2
2022/07/08 00:00:49;;;;;;;0.40;0.20;;;15.90;68.10;;;;;;6186523;23;20427;-73
2022/07/08 00:03:18;;;;;;;0.52;0.30;;;15.90;68.10;;;;;;6185160;23;20384;-73
2022/07/08 00:06:06;;;;;;;1.08;0.25;;;15.90;68.20;;;;;;6210677;23;20357;-75
2022/07/08 00:08:33;;;;;;;0.65;0.45;;;15.90;68.30;;;;;;6156331;23;20078;-73
2022/07/08 00:10:59;;;;;;;1.05;0.40;;;16.00;68.30;;;;;;6156352;23;20013;-73
2022/07/08 00:13:27;;;;;;;1.50;0.60;;;15.90;68.20;;;;;;6137864;23;20008;-73
2022/07/08 00:15:53;;;;;;;0.80;0.32;;;15.90;68.30;;;;;;6121776;23;20047;-73
2022/07/08 00:18:33;;;;;;;0.70;0.30;;;15.90;68.30;;;;;;6167091;23;20074;-73
2022/07/08 00:21:02;;;;;;;0.38;0.30;;;15.90;68.30;;;;;;6239598;23;20099;-73
2022/07/08 00:23:31;;;;;;;0.85;0.40;;;15.90;68.40;;;;;;6241253;23;20046;-73
2022/07/08 00:25:59;;;;;;;0.40;0.30;;;15.90;68.50;;;;;;6215687;23;20008;-73
2022/07/08 00:28:28;;;;;;;0.82;0.30;;;15.90;68.50;;;;;;6166573;23;20024;-73
2022/07/08 00:30:57;;;;;;;0.55;0.30;;;15.80;68.50;;;;;;6102875;23;20013;-73
2022/07/08 00:33:31;;;;;;;0.47;0.28;;;15.90;68.60;;;;;;6147741;23;20016;-73
2022/07/08 00:36:08;;;;;;;0.85;0.32;;;15.90;68.60;;;;;;6212425;23;20013;-73
2022/07/08 00:38:37;;;;;;;0.25;0.20;;;15.80;68.60;;;;;;6150154;23;20017;-72
2022/07/08 00:41:12;;;;;;;0.15;0.15;;;15.80;68.70;;;;;;6128061;23;20604;-73
2022/07/08 00:43:48;;;;;;;0.57;0.30;;;15.80;68.80;;;;;;6097579;23;20100;-73
2022/07/08 00:49:17;;;;;;;0.55;0.30;;;15.80;68.80;;;;;;5997297;23;20513;-73
2022/07/08 00:51:47;;;;;;;0.70;0.30;;;15.80;68.90;;;;;;5996904;23;20023;-73
2022/07/08 00:54:24;;;;;;;0.28;0.22;;;15.60;68.90;;;;;;5951654;24;20080;-73
2022/07/08 00:56:50;;;;;;;0.50;0.30;;;15.70;69.00;;;;;;6002542;23;20019;-73
2022/07/08 00:59:19;;;;;;;0.10;0.10;;;15.70;69.00;;;;;;6003382;23;20542;-73
2022/07/08 01:01:50;;;;;;;0.20;0.20;;;15.70;69.00;;;;;;6026008;23;20020;-73
2022/07/08 01:04:19;;;;;;;0.90;0.10;;;15.70;69.10;;;;;;6011296;23;20023;-74
2022/07/08 01:06:45;;;;;;;0.30;0.30;;;15.60;69.10;;;;;;6035070;23;20079;-73
2022/07/08 01:09:14;;;;;;;0.40;0.30;;;15.70;69.20;;;;;;5981790;23;20024;-74
2022/07/08 01:11:46;;;;;;;0.30;0.20;;;15.60;69.30;;;;;;5978820;24;20064;-74
2022/07/08 01:14:16;;;;;;;0.20;0.20;;;15.70;69.40;;;;;;5973148;24;20091;-73
2022/07/08 01:16:42;;;;;;;0.20;0.20;;;15.60;69.30;;;;;;5937508;24;20164;-73
2022/07/08 01:19:08;;;;;;;0.40;0.20;;;15.60;69.40;;;;;;6009652;23;20339;-73
2022/07/08 01:21:34;;;;;;;0.20;0.20;;;15.70;69.50;;;;;;6017093;23;20035;-73
2022/07/08 01:24:00;;;;;;;0.38;0.38;;;15.60;69.40;;;;;;6093599;23;20029;-73
2022/07/08 01:26:26;;;;;;;0.40;0.20;;;15.60;69.40;;;;;;6094234;23;20392;-73
2022/07/08 01:28:52;;;;;;;0.30;0.20;;;15.50;69.40;;;;;;6093410;23;20019;-73
2022/07/08 01:31:18;;;;;;;0.20;0.20;;;15.50;69.50;;;;;;6069743;23;20054;-73
2022/07/08 01:33:43;;;;;;;0.15;0.15;;;15.50;69.50;;;;;;6068876;23;20022;-73
2022/07/08 01:36:09;;;;;;;0.47;0.10;;;15.50;69.50;;;;;;6069611;23;20046;-73
2022/07/08 01:38:36;;;;;;;0.30;0.30;;;15.50;69.60;;;;;;6093517;23;20060;-73
2022/07/08 01:41:01;;;;;;;0.28;0.28;;;15.50;69.60;;;;;;6118933;23;20069;-73
2022/07/08 01:43:27;;;;;;;0.47;0.25;;;15.50;69.70;;;;;;6123433;23;20018;-73
2022/07/08 01:45:53;;;;;;;0.20;0.20;;;15.40;69.80;;;;;;6192721;23;20507;-73
2022/07/08 01:48:19;;;;;;;0.20;0.20;;;15.40;69.80;;;;;;6211864;23;20012;-73
2022/07/08 01:50:44;;;;;;;0.80;0.30;;;15.40;70.00;;;;;;6283205;22;20015;-73
2022/07/08 01:53:11;;;;;;;0.35;0.20;;;15.30;69.90;;;;;;6306470;22;20458;-73
2022/07/08 01:55:37;;;;;;;0.28;0.15;;;15.30;70.00;;;;;;6307123;22;20015;-74
2022/07/08 01:58:03;;;;;;;0.20;0.20;;;15.30;70.10;;;;;;6306941;22;20022;-73
2022/07/08 02:00:29;;;;;;;0.25;0.20;;;15.30;70.10;;;;;;6306558;22;20045;-73
2022/07/08 02:02:55;;;;;;;0.43;0.28;;;15.30;70.10;;;;;;6306583;22;20087;-73
2022/07/08 02:05:20;;;;;;;0.20;0.20;;;15.30;70.10;;;;;;6306495;22;20027;-73
2022/07/08 02:07:46;;;;;;;0.43;0.20;;;15.40;70.20;;;;;;6306240;22;20008;-73
2022/07/08 02:10:12;;;;;;;0.55;0.30;;;15.30;70.10;;;;;;6306767;22;20064;-73
2022/07/08 02:12:38;;;;;;;0.20;0.20;;;15.40;70.30;;;;;;6307080;22;20018;-73
2022/07/08 02:15:06;;;;;;;0.20;0.20;;;15.30;70.20;;;;;;6306209;22;20010;-73
2022/07/08 02:17:34;;;;;;;0.20;0.20;;;15.30;70.20;;;;;;6306264;22;20007;-73
2022/07/08 02:20:01;;;;;;;0.40;0.20;;;15.30;70.90;;;;;;6306194;22;20386;-73
2022/07/08 02:22:27;;;;;;;0.32;0.30;;;15.30;70.30;;;;;;6306730;22;20065;-73
2022/07/08 02:24:53;;;;;;;0.30;0.20;;;15.20;70.30;;;;;;6306751;22;20014;-73
2022/07/08 02:27:19;;;;;;;0.10;0.10;;;15.20;70.30;;;;;;6306790;22;20007;-73
2022/07/08 02:29:45;;;;;;;0.20;0.20;;;15.20;70.40;;;;;;6306239;22;20014;-73
2022/07/08 02:32:11;;;;;;;0.30;0.30;;;15.20;70.50;;;;;;6305937;22;20007;-73
2022/07/08 02:34:37;;;;;;;0.55;0.22;;;15.20;70.50;;;;;;6279691;22;20094;-73
2022/07/08 02:37:03;;;;;;;0.85;0.30;;;15.20;70.50;;;;;;6306171;22;20008;-73
2022/07/08 02:39:29;;;;;;;0.50;0.30;;;15.10;70.50;;;;;;6278535;22;20456;-73
2022/07/08 02:41:55;;;;;;;0.85;0.43;;;15.10;70.50;;;;;;6306039;22;20042;-73
2022/07/08 02:44:21;;;;;;;0.60;0.38;;;15.10;70.60;;;;;;6305954;22;20014;-73
2022/07/08 02:46:47;;;;;;;0.20;0.13;;;15.00;70.70;;;;;;6306632;22;20007;-73
2022/07/08 02:49:13;;;;;;;0.30;0.30;;;15.00;70.90;;;;;;6279386;22;20012;-73
2022/07/08 02:51:39;;;;;;;0.52;0.20;;;15.00;71.50;;;;;;6305247;22;20410;-71
2022/07/08 02:54:06;;;;;;;0.85;0.40;;;14.90;70.90;;;;;;6251106;22;20446;-71
2022/07/08 02:56:33;;;;;;;1.00;0.40;;;14.80;70.90;;;;;;6289802;22;19999;-71
2022/07/08 02:59:00;;;;;;;0.20;0.20;;;14.90;71.10;;;;;;6306080;22;20068;-73
2022/07/08 03:01:26;;;;;;;0.20;0.20;;;14.80;71.10;;;;;;6306251;22;20003;-73
2022/07/08 03:03:52;;;;;;;0.38;0.32;;;14.80;71.20;;;;;;6306698;22;20419;-73
2022/07/08 03:06:18;;;;;;;0.30;0.30;;;14.80;71.20;;;;;;6306608;22;20035;-71
2022/07/08 03:08:44;;;;;;;0.95;0.38;;;14.80;71.30;;;;;;6306208;22;20015;-73
2022/07/08 03:11:10;;;;;;;0.20;0.20;;;14.70;71.30;;;;;;6306408;22;20511;-73
2022/07/08 03:13:36;;;;;;;0.20;0.10;;;14.70;71.40;;;;;;6306024;22;20038;-71
2022/07/08 03:16:06;;;;;;;0.50;0.38;;;14.70;71.50;;;;;;6306578;22;20060;-71
2022/07/08 03:18:33;;;;;;;0.52;0.30;;;14.60;71.40;;;;;;6280139;22;20014;-74
2022/07/08 03:20:58;;;;;;;0.95;0.20;;;14.60;71.50;;;;;;6306402;22;20007;-74
2022/07/08 03:23:24;;;;;;;0.45;0.17;;;14.50;71.50;;;;;;6278652;22;20011;-73
2022/07/08 03:25:50;;;;;;;0.82;0.30;;;14.50;72.30;;;;;;6275303;22;20065;-74
2022/07/08 03:28:15;;;;;;;0.38;0.22;;;14.50;71.70;;;;;;6305791;22;20022;-73
2022/07/08 03:30:41;;;;;;;0.75;0.20;;;14.50;71.80;;;;;;6306663;22;20331;-73
2022/07/08 03:33:07;;;;;;;0.20;0.20;;;14.50;71.90;;;;;;6305971;22;20007;-73
2022/07/08 03:35:33;;;;;;;0.20;0.20;;;14.50;72.00;;;;;;6306428;22;20141;-73
2022/07/08 03:37:58;;;;;;;0.65;0.20;;;14.40;72.00;;;;;;6306592;22;20014;-73
2022/07/08 03:43:02;;;;;;;0.32;0.20;;;14.40;72.20;;;;;;6305757;22;20046;-73
2022/07/08 03:45:27;;;;;;;0.55;0.20;;;14.30;72.20;;;;;;6278459;22;20018;-73
2022/07/08 03:47:53;;;;;;;0.28;0.25;;;14.30;72.40;;;;;;6306027;22;20018;-73
2022/07/08 03:50:19;;;;;;;0.43;0.17;;;14.20;72.40;;;;;;6279335;22;20408;-73
2022/07/08 03:52:45;;;;;;;0.35;0.20;;;14.20;72.40;;;;;;6305897;22;20137;-73
2022/07/08 03:55:11;;;;;;;0.40;0.30;;;14.20;72.50;;;;;;6305591;22;20335;-73
2022/07/08 03:57:37;;;;;;;0.20;0.20;;;14.20;72.50;;;;;;6278541;22;20007;-73
2022/07/08 04:00:05;;;;;;;0.43;0.30;;;14.20;72.60;;;;;;6278308;22;20090;-73
2022/07/08 04:02:30;;;;;;;0.65;0.30;;;14.20;72.60;;;;;;6278531;22;20038;-73
2022/07/08 04:04:56;;;;;;;0.32;0.20;;;14.10;72.70;;;;;;6307945;22;20427;-73
2022/07/08 04:07:22;;;;;;;0.50;0.30;;;14.10;72.80;;;;;;6279679;22;20019;-73
2022/07/08 04:09:48;;;;;;;0.20;0.20;;;14.10;72.90;;;;;;6307264;22;20007;-73
2022/07/08 04:12:13;;;;;;;0.50;0.25;;;14.10;72.90;;;;;;6307197;22;20335;-73
2022/07/08 04:14:39;;;;;;;0.20;0.20;;;14.00;72.90;;;;;;6307303;22;20029;-73
2022/07/08 04:17:05;;;;;;;0.35;0.20;;;14.00;73.00;;;;;;6306841;22;20424;-73
2022/07/08 04:19:30;;;;;;;0.52;0.20;;;14.00;73.00;;;;;;6280335;22;20011;-73
2022/07/08 04:21:56;;;;;;;0.57;0.30;;;14.00;73.10;;;;;;6307217;22;20035;-73
2022/07/08 04:24:22;;;;;;;0.25;0.20;;;14.00;73.10;;;;;;6307195;22;20427;-73
2022/07/08 04:26:48;;;;;;;0.38;0.25;;;14.00;73.10;;;;;;6279422;22;20027;-73
2022/07/08 04:29:13;;;;;;;0.73;0.30;;;14.10;73.20;;;;;;6307104;22;20007;-73
2022/07/08 04:31:39;;;;;;;0.95;0.50;;;14.00;73.10;;;;;;6306964;22;20003;-73
2022/07/08 04:34:05;;;;;;;0.88;0.30;;;14.00;73.20;;;;;;6278065;22;20008;-73
2022/07/08 04:36:31;;;;;;;0.88;0.32;;;14.00;73.20;;;;;;6307218;22;20010;-73
2022/07/08 04:38:57;;;;;;;0.20;0.20;;;14.00;73.20;;;;;;6306958;22;20011;-73
2022/07/08 04:41:22;;;;;;;0.57;0.20;;;14.10;73.20;;;;;;6278784;22;20082;-73
2022/07/08 04:43:48;;;;;;;0.25;0.25;;;14.00;73.10;;;;;;6307310;22;20328;-73
2022/07/08 04:46:14;;;;;;;0.70;0.30;;;14.10;73.20;;;;;;6297135;22;20014;-73
2022/07/08 04:48:40;;;;;;;0.20;0.15;;;14.10;73.20;;;;;;6307658;22;20089;-73
2022/07/08 04:51:06;;;;;;;0.40;0.30;;;14.20;73.20;;;;;;6307345;22;20003;-73
2022/07/08 04:53:32;;;;;;;0.85;0.30;;;14.10;73.20;;;;;;6279899;22;20057;-73
2022/07/08 04:55:58;;;;;;;0.40;0.30;;;14.10;73.30;;;;;;6307648;22;20007;-73
2022/07/08 04:58:23;;;;;;;0.20;0.20;;;14.10;73.30;;;;;;6307518;22;20424;-74
2022/07/08 05:00:49;;;;;;;1.10;0.20;;;14.20;73.30;;;;;;6307888;22;20034;-73
2022/07/08 05:03:15;;;;;;;0.90;0.30;;;14.20;73.30;;;;;;6276796;22;20007;-73
2022/07/08 05:05:41;;;;;;;0.30;0.30;;;14.20;73.20;;;;;;6307058;22;20021;-73
2022/07/08 05:08:06;;;;;;;0.43;0.20;;;14.20;73.20;;;;;;6306786;22;20089;-74
2022/07/08 05:10:32;;;;;;;0.28;0.28;;;14.30;73.20;;;;;;6280744;22;20010;-73
2022/07/08 05:12:58;;;;;;;0.80;0.28;;;14.20;73.20;;;;;;6280195;22;20007;-73
2022/07/08 05:15:25;;;;;;;0.20;0.20;;;14.30;73.20;;;;;;6277620;22;20008;-73
2022/07/08 05:17:52;;;;;;;0.38;0.25;;;14.40;73.20;;;;;;6306938;22;20450;-73
2022/07/08 05:20:18;;;;;;;0.28;0.28;;;14.40;73.10;;;;;;6306949;22;20061;-72
2022/07/08 05:22:44;;;;;;;0.22;0.22;;;14.50;72.90;;;;;;6280509;22;20350;-73
2022/07/08 05:25:11;;;;;;;0.22;0.20;;;14.60;72.70;;;;;;6307122;22;20015;-72
2022/07/08 05:27:37;;;;;;;0.20;0.20;;;14.70;72.70;;;;;;6253875;22;20008;-72
2022/07/08 05:30:05;;;;;;;0.65;0.30;;;14.80;72.60;;;;;;6279792;22;20007;-72
2022/07/08 05:32:32;;;;;;;0.30;0.30;;;14.90;72.40;;;;;;6306824;22;20003;-72
2022/07/08 05:34:57;;;;;;;0.85;0.30;;;15.00;72.20;;;;;;6306899;22;20042;-72
2022/07/08 05:37:23;;;;;;;0.20;0.20;;;15.10;72.00;;;;;;6279678;22;20000;-72
2022/07/08 05:39:49;;;;;;;0.20;0.20;;;15.20;72.00;;;;;;6307229;22;20343;-73
2022/07/08 05:42:15;;;;;;;0.20;0.20;;;15.30;71.80;;;;;;6279504;22;20093;-74
2022/07/08 05:44:40;;;;;;;0.20;0.20;;;15.50;71.90;;;;;;6306605;22;20008;-72
2022/07/08 05:47:07;;;;;;;0.25;0.25;;;15.40;71.80;;;;;;6306723;22;20382;-73
2022/07/08 05:49:34;;;;;;;0.88;0.40;;;15.50;71.90;;;;;;6280141;22;20082;-72
2022/07/08 05:52:01;;;;;;;0.30;0.30;;;15.60;71.90;;;;;;6279466;22;20094;-73
2022/07/08 05:54:27;;;;;;;0.22;0.22;;;15.60;71.90;;;;;;6307358;22;20007;-71
2022/07/08 05:56:53;;;;;;;0.10;0.10;;;15.70;71.90;;;;;;6306559;22;20090;-73
2022/07/08 05:59:19;;;;;;;0.38;0.20;;;15.70;71.90;;;;;;6306965;22;20132;-73
2022/07/08 06:01:45;;;;;;;0.30;0.30;;;15.70;71.90;;;;;;6279253;22;20010;-73
2022/07/08 06:04:10;;;;;;;0.50;0.30;;;15.80;71.90;;;;;;6250678;22;20439;-73
2022/07/08 06:06:36;;;;;;;0.85;0.32;;;15.80;71.90;;;;;;6303447;22;20014;-73
2022/07/08 06:09:02;;;;;;;0.25;0.25;;;15.90;71.90;;;;;;6307025;22;20015;-73
2022/07/08 06:11:28;;;;;;;2.35;0.50;;;16.00;71.80;;;;;;6279307;22;20378;-73
2022/07/08 06:13:54;;;;;;;1.73;0.52;;;16.00;71.80;;;;;;6306611;22;20003;-73
2022/07/08 06:16:20;;;;;;;0.85;0.40;;;16.10;71.70;;;;;;6307185;22;20018;-73
2022/07/08 06:18:46;;;;;;;0.63;0.40;;;16.20;71.50;;;;;;6306495;22;20011;-73
2022/07/08 06:21:12;;;;;;;0.95;0.43;;;16.30;71.30;;;;;;6306615;22;20007;-73
2022/07/08 06:23:38;;;;;;;1.40;0.57;;;16.40;71.10;;;;;;6279744;22;20011;-73
2022/07/08 06:26:05;;;;;;;1.40;0.50;;;16.60;71.00;;;;;;6306027;22;20463;-73
2022/07/08 06:28:30;;;;;;;0.60;0.20;;;16.60;70.80;;;;;;6306651;22;20019;-73
2022/07/08 06:30:57;;;;;;;1.65;0.45;;;16.70;70.70;;;;;;6306678;22;20382;-73
2022/07/08 06:33:22;;;;;;;0.40;0.20;;;16.70;70.60;;;;;;6306342;22;20015;-73
2022/07/08 06:35:48;;;;;;;0.77;0.38;;;16.80;70.50;;;;;;6306701;22;19995;-73
2022/07/08 06:38:14;;;;;;;1.08;0.30;;;16.90;70.50;;;;;;6306669;22;20084;-73
2022/07/08 06:40:39;;;;;;;0.85;0.38;;;17.00;70.50;;;;;;6279766;22;20037;-73
2022/07/08 06:43:05;;;;;;;0.90;0.50;;;17.00;70.40;;;;;;6279271;22;20015;-73
2022/07/08 06:45:32;;;;;;;2.33;0.57;;;17.10;70.50;;;;;;6307340;22;20007;-74
2022/07/08 06:47:59;;;;;;;0.43;0.30;;;17.10;70.30;;;;;;6307170;22;20058;-73
2022/07/08 06:50:25;;;;;;;0.40;0.40;;;17.10;70.40;;;;;;6306569;22;20438;-73
2022/07/08 06:52:51;;;;;;;0.60;0.40;;;17.20;70.40;;;;;;6307304;22;19999;-73
2022/07/08 06:55:16;;;;;;;0.88;0.30;;;17.20;70.30;;;;;;6307364;22;20007;-73
2022/07/08 06:57:42;;;;;;;0.60;0.30;;;17.30;70.30;;;;;;6306747;22;20442;-73
2022/07/08 07:00:08;;;;;;;1.55;0.55;;;17.40;70.30;;;;;;6307163;22;20007;-73
2022/07/08 07:02:34;;;;;;;0.50;0.35;;;17.30;70.40;;;;;;6306674;22;20011;-73
2022/07/08 07:05:00;;;;;;;0.28;0.28;;;17.40;70.50;;;;;;6306723;22;20449;-73
2022/07/08 07:07:27;;;;;;;0.63;0.20;;;17.40;70.50;;;;;;6279054;22;20546;-73
2022/07/08 07:09:53;;;;;;;0.65;0.30;;;17.50;70.50;;;;;;6278065;22;20784;-73
2022/07/08 07:12:19;;;;;;;0.47;0.20;;;17.60;70.40;;;;;;6279085;22;20031;-73
2022/07/08 07:14:44;;;;;;;0.55;0.38;;;17.60;70.50;;;;;;6276062;22;20010;-73
2022/07/08 07:17:10;;;;;;;1.00;0.38;;;17.50;70.50;;;;;;6306349;22;20309;-73
2022/07/08 07:19:36;;;;;;;1.52;0.45;;;17.60;70.50;;;;;;6306265;22;20007;-73
2022/07/08 07:22:02;;;;;;;0.70;0.30;;;17.60;70.60;;;;;;6279446;22;20007;-73
2022/07/08 07:24:28;;;;;;;0.90;0.55;;;17.70;70.70;;;;;;6279499;22;20007;-73
2022/07/08 07:26:54;;;;;;;0.68;0.30;;;17.80;70.50;;;;;;6278759;22;20078;-73
2022/07/08 07:29:20;;;;;;;0.75;0.30;;;17.80;70.40;;;;;;6306543;22;20013;-73
2022/07/08 07:31:46;;;;;;;2.55;0.55;;;17.90;70.20;;;;;;6306524;22;20010;-71
2022/07/08 07:34:11;;;;;;;0.40;0.35;;;17.90;70.30;;;;;;6306958;22;20308;-71
2022/07/08 07:36:37;;;;;;;0.32;0.30;;;18.00;70.50;;;;;;6306819;22;20011;-71
2022/07/08 07:39:03;;;;;;;0.30;0.30;;;18.30;70.20;;;;;;6306461;22;20404;-71
2022/07/08 07:41:29;;;;;;;1.15;0.65;;;18.50;69.70;;;;;;6306046;22;20094;-71
2022/07/08 07:43:55;;;;;;;2.38;0.73;;;18.60;69.30;;;;;;6306595;22;20003;-71
2022/07/08 07:46:21;;;;;;;1.50;0.60;;;18.70;69.00;;;;;;6306588;22;20011;-71
2022/07/08 07:48:47;;;;;;;1.00;0.60;;;18.70;68.90;;;;;;6306563;22;20446;-71
2022/07/08 07:51:13;;;;;;;0.45;0.38;;;18.80;69.00;;;;;;6306602;22;20004;-71
2022/07/08 07:53:39;;;;;;;0.45;0.45;;;18.80;69.00;;;;;;6306209;22;20010;-71
2022/07/08 07:56:05;;;;;;;0.55;0.50;;;18.90;69.10;;;;;;6297005;22;20442;-71
2022/07/08 07:58:30;;;;;;;1.08;0.50;;;19.00;69.10;;;;;;6306490;22;20454;-72
2022/07/08 08:00:57;;;;;;;0.55;0.43;;;19.00;69.10;;;;;;6302675;22;20090;-71
2022/07/08 08:03:23;;;;;;;0.98;0.40;;;19.10;69.10;;;;;;6306263;22;20030;-72
2022/07/08 08:05:48;;;;;;;1.00;0.50;;;19.10;69.10;;;;;;6306071;22;20007;-71
2022/07/08 08:08:14;;;;;;;1.52;0.52;;;19.20;69.10;;;;;;6306364;22;20438;-71
2022/07/08 08:10:40;;;;;;;1.20;0.30;;;19.20;69.10;;;;;;6306177;22;20525;-72
2022/07/08 08:13:06;;;;;;;0.57;0.38;;;19.20;69.00;;;;;;6306214;22;20334;-73
2022/07/08 08:15:32;;;;;;;0.68;0.35;;;19.30;69.30;;;;;;6305989;22;20019;-72
2022/07/08 08:17:59;;;;;;;0.40;0.30;;;19.30;69.20;;;;;;6305992;22;20019;-73
2022/07/08 08:20:27;;;;;;;0.95;0.40;;;19.40;69.40;;;;;;6278894;22;20094;-73
2022/07/08 08:22:53;;;;;;;0.20;0.20;;;19.60;69.20;;;;;;6296087;22;20037;-73
2022/07/08 08:25:20;;;;;;;0.55;0.40;;;19.70;68.90;;;;;;6306445;22;20017;-72
2022/07/08 08:27:47;;;;;;;0.40;0.30;;;19.80;68.60;;;;;;6277069;22;20391;-72
2022/07/08 08:30:13;;;;;;;0.77;0.30;;;19.90;69.20;;;;;;6306532;22;20007;-72
2022/07/08 08:32:39;;;;;;;0.57;0.40;;;20.20;68.30;;;;;;6305880;22;20334;-72
2022/07/08 08:35:06;;;;;;;0.93;0.50;;;20.10;68.20;;;;;;6306414;22;20003;-72
2022/07/08 08:37:32;;;;;;;1.73;0.40;;;20.30;68.00;;;;;;6277017;22;20380;-72
2022/07/08 08:40:07;;;;;;;1.13;0.43;;;20.30;67.70;;;;;;6305914;22;20014;-72
2022/07/08 08:42:33;;;;;;;0.75;0.40;;;20.40;67.60;;;;;;6305516;22;20015;-72
2022/07/08 08:45:00;;;;;;;0.32;0.28;;;20.50;67.90;;;;;;6278239;22;20374;-73
2022/07/08 08:47:29;;;;;;;1.35;0.40;;;20.50;67.80;;;;;;6279068;22;20034;-72
2022/07/08 08:49:55;;;;;;;1.02;0.50;;;20.50;67.70;;;;;;6305859;22;20430;-72
2022/07/08 08:52:24;;;;;;;0.85;0.40;;;20.50;67.70;;;;;;6306870;22;20431;-72
2022/07/08 08:54:51;;;;;;;0.60;0.40;;;20.50;67.90;;;;;;6307174;22;20331;-73
2022/07/08 08:57:18;;;;;;;0.45;0.30;;;20.50;68.00;;;;;;6306786;22;20039;-72
2022/07/08 08:59:46;;;;;;;0.75;0.30;;;20.40;68.10;;;;;;6306945;22;20003;-72
2022/07/08 09:02:12;;;;;;;0.30;0.30;;;20.40;68.20;;;;;;6306750;22;20017;-72
2022/07/08 09:04:38;;;;;;;0.80;0.38;;;20.50;68.20;;;;;;6306680;22;20011;-72
2022/07/08 09:07:04;;;;;;;1.10;0.50;;;20.60;68.20;;;;;;6306729;22;20015;-73
2022/07/08 09:09:30;;;;;;;0.70;0.32;;;20.90;68.00;;;;;;6279652;22;20003;-72
2022/07/08 09:11:56;;;;;;;0.98;0.50;;;21.00;67.60;;;;;;6307137;22;20015;-72
2022/07/08 09:14:23;;;;;;;1.75;0.45;;;21.20;67.10;;;;;;6307542;22;20074;-72
2022/07/08 09:17:08;;;;;;;1.02;0.40;;;21.30;67.40;;;;;;6306929;22;20082;-72
2022/07/08 09:19:34;;;;;;;0.50;0.40;;;21.40;66.60;;;;;;6307498;22;20003;-70
2022/07/08 09:22:00;;;;;;;0.85;0.40;;;21.40;66.70;;;;;;6306909;22;20007;-72
2022/07/08 09:24:27;;;;;;;1.75;0.40;;;21.50;66.80;;;;;;6306916;22;20011;-72
2022/07/08 09:26:55;;;;;;;0.95;0.30;;;21.50;66.70;;;;;;6253214;22;20043;-72
2022/07/08 09:29:21;;;;;;;0.43;0.32;;;21.60;66.70;;;;;;6278191;22;20018;-72
2022/07/08 09:31:48;;;;;;;1.10;0.50;;;21.70;66.70;;;;;;6306840;22;20007;-72
2022/07/08 09:34:16;;;;;;;2.28;0.70;;;21.70;66.40;;;;;;6303423;22;20011;-72
2022/07/08 09:36:46;;;;;;;0.45;0.30;;;21.80;66.60;;;;;;6280057;22;20007;-72
2022/07/08 09:39:27;;;;;;;0.60;0.30;;;21.90;66.70;;;;;;6306797;22;20003;-72
2022/07/08 09:41:53;;;;;;;0.55;0.30;;;21.80;66.70;;;;;;6307459;22;19999;-72
2022/07/08 09:44:22;;;;;;;0.20;0.20;;;21.80;66.70;;;;;;6307463;22;20007;-72
2022/07/08 09:46:49;;;;;;;0.40;0.30;;;21.90;66.70;;;;;;6306904;22;20080;-72
2022/07/08 09:49:30;;;;;;;0.73;0.40;;;21.90;66.70;;;;;;6307129;22;20035;-72
2022/07/08 09:51:57;;;;;;;0.22;0.22;;;21.90;66.70;;;;;;6306779;22;20090;-72
2022/07/08 09:54:24;;;;;;;0.32;0.30;;;21.80;66.80;;;;;;6306706;22;20007;-72
2022/07/08 09:57:07;;;;;;;1.92;0.50;;;21.90;66.90;;;;;;6306615;22;20393;-73
2022/07/08 09:59:35;;;;;;;0.52;0.30;;;21.80;67.10;;;;;;6306854;22;20137;-73
2022/07/08 10:02:02;;;;;;;1.45;0.50;;;22.00;67.10;;;;;;6306621;22;20004;-73
2022/07/08 10:04:28;;;;;;;1.40;0.40;;;22.20;66.60;;;;;;6306780;22;20007;-73
2022/07/08 10:06:56;;;;;;;1.13;0.55;;;22.40;66.20;;;;;;6306502;22;20437;-73
2022/07/08 10:09:23;;;;;;;1.27;0.40;;;22.70;65.50;;;;;;6279226;22;20003;-73
2022/07/08 10:11:51;;;;;;;0.50;0.40;;;22.80;64.90;;;;;;6307042;22;20026;-71
2022/07/08 10:14:18;;;;;;;1.15;0.52;;;22.80;65.00;;;;;;6306350;22;20064;-73
2022/07/08 10:16:46;;;;;;;0.40;0.40;;;23.00;64.80;;;;;;6307056;22;20003;-74
2022/07/08 10:19:18;;;;;;;1.50;0.60;;;23.20;64.50;;;;;;6307363;22;19999;-74
2022/07/08 10:21:50;;;;;;;0.45;0.30;;;23.20;64.00;;;;;;6306657;22;20125;-74
2022/07/08 10:24:22;;;;;;;1.02;0.50;;;23.30;63.80;;;;;;6306589;22;20343;-74
2022/07/08 10:26:48;;;;;;;0.50;0.50;;;23.40;63.70;;;;;;6306552;22;20003;-74
2022/07/08 10:29:15;;;;;;;0.82;0.50;;;23.30;63.80;;;;;;6307087;22;20015;-73
2022/07/08 10:31:45;;;;;;;0.75;0.45;;;23.30;63.80;;;;;;6306713;22;20085;-74
2022/07/08 10:34:12;;;;;;;0.47;0.47;;;23.20;64.20;;;;;;6279561;22;20335;-73
2022/07/08 10:36:45;;;;;;;1.08;0.40;;;23.00;64.60;;;;;;6279759;22;20056;-73
2022/07/08 10:39:12;;;;;;;0.30;0.30;;;22.90;64.80;;;;;;6306955;22;20003;-74
2022/07/08 10:41:38;;;;;;;0.65;0.50;;;22.90;65.00;;;;;;6306722;22;20007;-73
2022/07/08 10:44:05;;;;;;;0.60;0.40;;;22.80;65.00;;;;;;6279225;22;20390;-73
2022/07/08 10:46:31;;;;;;;0.38;0.30;;;22.90;65.30;;;;;;6306326;22;20489;-73
2022/07/08 10:48:58;;;;;;;1.17;0.38;;;23.10;64.90;;;;;;6278854;22;20031;-73
2022/07/08 10:51:45;;;;;;;1.38;0.50;;;23.30;64.50;;;;;;6306888;22;20030;-73
2022/07/08 10:54:24;;;;;;;0.30;0.30;;;23.60;64.00;;;;;;6283937;22;20011;-73
2022/07/08 10:56:53;;;;;;;0.40;0.40;;;23.70;63.40;;;;;;6306559;22;20018;-73
2022/07/08 10:59:23;;;;;;;0.93;0.50;;;23.90;63.40;;;;;;6306975;22;20011;-73
2022/07/08 11:02:01;;;;;;;0.60;0.50;;;23.90;63.20;;;;;;6307664;22;20049;-73
2022/07/08 11:04:42;;;;;;;1.38;0.43;;;23.90;62.90;;;;;;6306345;22;20716;-73
2022/07/08 11:07:26;;;;;;;0.98;0.68;;;23.90;63.10;;;;;;6303531;22;20313;-73
2022/07/08 11:10:10;;;;;;;1.17;0.50;;;23.70;63.20;;;;;;6250726;22;20003;-73
2022/07/08 11:12:39;;;;;;;0.40;0.40;;;23.70;63.50;;;;;;6253216;22;20008;-73
2022/07/08 11:15:11;;;;;;;0.50;0.35;;;23.80;63.50;;;;;;6306893;22;20007;-73
2022/07/08 11:17:40;;;;;;;1.20;0.43;;;23.90;63.30;;;;;;6306456;22;20007;-73
2022/07/08 11:20:11;;;;;;;0.60;0.55;;;24.00;62.90;;;;;;6254025;22;20093;-73
2022/07/08 11:22:38;;;;;;;1.38;0.55;;;24.10;62.70;;;;;;6279738;22;20022;-73
2022/07/08 11:25:06;;;;;;;1.42;0.60;;;24.30;62.50;;;;;;6306406;22;20394;-73
2022/07/08 11:27:33;;;;;;;0.47;0.47;;;24.30;62.40;;;;;;6277617;22;20012;-73
2022/07/08 11:30:01;;;;;;;0.40;0.40;;;24.20;62.30;;;;;;6306348;22;20013;-73
2022/07/08 11:32:27;;;;;;;0.52;0.50;;;24.10;62.70;;;;;;6276123;22;20012;-73
2022/07/08 11:34:54;;;;;;;0.80;0.52;;;24.00;63.50;;;;;;6306132;22;20063;-73
2022/07/08 11:37:21;;;;;;;0.47;0.40;;;23.90;63.10;;;;;;6306487;22;20018;-73
2022/07/08 11:39:47;;;;;;;0.30;0.30;;;23.90;63.20;;;;;;6306771;22;20011;-73
2022/07/08 11:42:14;;;;;;;1.33;0.52;;;23.80;63.40;;;;;;6306025;22;20011;-75
2022/07/08 11:44:40;;;;;;;0.65;0.30;;;23.80;63.50;;;;;;6306462;22;20388;-75
2022/07/08 11:47:06;;;;;;;0.65;0.50;;;23.90;63.50;;;;;;6278152;22;20035;-74
2022/07/08 11:49:34;;;;;;;0.70;0.50;;;23.90;63.40;;;;;;6305612;22;20003;-74
2022/07/08 11:52:00;;;;;;;0.50;0.50;;;24.00;63.30;;;;;;6253592;22;20450;-75
2022/07/08 11:54:28;;;;;;;0.55;0.40;;;24.20;63.00;;;;;;6306155;22;20030;-74
2022/07/08 11:56:57;;;;;;;0.70;0.40;;;24.30;62.70;;;;;;6305979;22;20038;-75
2022/07/08 11:59:25;;;;;;;0.88;0.68;;;24.30;62.60;;;;;;6277516;22;20019;-73
2022/07/08 12:01:55;;;;;;;1.75;0.55;;;24.40;62.10;;;;;;6306097;22;20083;-73
2022/07/08 12:04:21;;;;;;;;;;;24.40;62.10;;;;;;6306252;22;20003;-73
2022/07/08 12:06:50;;;;;;;0.77;0.57;;;24.30;62.10;;;;;;6305819;22;19983;-73
2022/07/08 12:09:17;;;;;;;0.90;0.50;;;24.10;62.50;;;;;;6306439;22;20435;-73
2022/07/08 12:11:45;;;;;;;0.82;0.57;;;24.10;62.70;;;;;;6278927;22;20011;-74
2022/07/08 12:14:11;;;;;;;0.47;0.43;;;24.10;62.90;;;;;;6305559;22;20454;-74
2022/07/08 12:16:51;;;;;;;0.30;0.30;;;24.20;62.90;;;;;;6302741;22;20150;-73
2022/07/08 12:19:35;;;;;;;0.38;0.35;;;24.30;62.50;;;;;;6306233;22;20098;-73
2022/07/08 12:22:04;;;;;;;0.63;0.43;;;24.40;62.30;;;;;;6306290;22;20087;-71
2022/07/08 12:24:35;;;;;;;1.67;0.52;;;24.50;62.20;;;;;;6306564;22;20007;-71
2022/07/08 12:27:04;;;;;;;0.75;0.47;;;24.60;62.10;;;;;;6306898;22;20501;-71
2022/07/08 12:29:33;;;;;;;0.50;0.50;;;24.80;62.00;;;;;;6307043;22;20007;-71
2022/07/08 12:31:59;;;;;;;1.17;0.40;;;24.90;61.70;;;;;;6279866;22;20062;-71
2022/07/08 12:34:26;;;;;;;0.30;0.30;;;25.00;61.60;;;;;;6307126;22;20031;-71
2022/07/08 12:36:52;;;;;;;1.10;0.45;;;24.90;61.60;;;;;;6307311;22;20395;-71
2022/07/08 12:39:22;;;;;;;0.95;0.43;;;24.80;61.80;;;;;;6297446;22;20030;-71
2022/07/08 12:42:01;;;;;;;0.30;0.30;;;24.80;61.90;;;;;;6307168;22;20007;-72
2022/07/08 12:44:40;;;;;;;0.52;0.45;;;24.80;61.80;;;;;;6279536;22;20432;-72
2022/07/08 12:47:09;;;;;;;1.38;0.40;;;24.90;62.00;;;;;;6307168;22;20010;-72
2022/07/08 12:49:38;;;;;;;0.40;0.40;;;24.90;62.00;;;;;;6307114;22;20096;-72
2022/07/08 12:52:05;;;;;;;0.40;0.40;;;24.90;62.50;;;;;;6306986;22;20017;-71
2022/07/08 12:54:31;;;;;;;0.50;0.50;;;24.90;61.70;;;;;;6307298;22;20109;-71